Terminal Aerodrome Forecast
Issued by NWS

Home | Current Version | Previous Version | Text Only | Print | Product List | Glossary On
Versions: 1 2 3 4 5 6 7 8 9 10 11 12 13 14 15 16 17
000
FTUS43 KDVN 142300
TAFBRL
TAF
KBRL 142320Z 1500/1524 22004KT P6SM SCT120
     FM150900 17004KT P6SM BKN050
      TEMPO 1509/1512 6SM -SHRA BR BKN025
     FM151200 20006KT 5SM -RA BR BKN025
     FM151800 29007KT P6SM OVC030
      TEMPO 1518/1520 -SHRA
     FM152100 30010KT P6SM BKN050=

USA.gov is the U.S. government's official web portal to all federal, state and local government web resources and services.